Time;durP1;ratioP1;P1;durP2;ratioP2;P2;SDS_P1;SDS_P2;PMS_P1;PMS_P2;Temp;Humidity;BMP_temperature;BMP_pressure;BME280_temperature;BME280_humidity;BME280_pressure;Samples;Min_cycle;Max_cycle;Signal;HPM_P1;HPM_P2
2021/11/12 00:12:25;;;;;;;71.82;41.08;;;8.40;99.90;;;;;;4128221;28;20038;-77
2021/11/12 00:14:26;;;;;;;72.07;40.45;;;8.50;99.90;;;;;;4121159;28;20045;-78
2021/11/12 00:16:28;;;;;;;60.20;39.67;;;8.50;99.90;;;;;;4124179;28;20035;-78
2021/11/12 00:18:31;;;;;;;69.25;42.47;;;8.50;99.90;;;;;;4127727;28;20038;-78
2021/11/12 00:20:32;;;;;;;67.50;41.53;;;8.50;99.90;;;;;;4128082;28;20030;-78
2021/11/12 00:22:33;;;;;;;75.93;41.65;;;8.50;99.90;;;;;;4139474;28;20109;-77
2021/11/12 00:24:34;;;;;;;68.18;41.45;;;8.50;99.90;;;;;;4125652;28;20042;-77
2021/11/12 00:26:35;;;;;;;66.43;40.63;;;8.50;99.90;;;;;;4121624;28;20036;-77
2021/11/12 00:28:39;;;;;;;70.38;41.85;;;8.50;99.90;;;;;;4126967;28;20386;-78
2021/11/12 00:35:27;;;;;;;68.10;38.22;;;8.50;99.90;;;;;;4129526;28;20034;-78
2021/11/12 00:37:53;;;;;;;68.93;41.63;;;8.50;99.90;;;;;;4117625;28;20491;-79
2021/11/12 00:39:59;;;;;;;64.40;39.42;;;8.50;99.90;;;;;;4124484;28;20049;-77
2021/11/12 00:42:14;;;;;;;66.22;40.13;;;8.40;99.90;;;;;;4126213;28;20034;-78
2021/11/12 00:47:00;;;;;;;73.20;42.38;;;8.50;99.90;;;;;;4108913;28;20145;-78
2021/11/12 00:49:05;;;;;;;69.55;41.25;;;8.40;99.90;;;;;;4108917;28;20035;-79
2021/11/12 00:53:49;;;;;;;69.80;41.15;;;8.40;99.90;;;;;;4134326;28;20410;-79
2021/11/12 00:55:49;;;;;;;63.78;40.63;;;8.40;99.90;;;;;;4125442;28;20034;-78
2021/11/12 00:57:51;;;;;;;72.63;39.97;;;8.40;99.90;;;;;;4129586;28;20045;-78
2021/11/12 00:59:52;;;;;;;63.50;40.72;;;8.40;99.90;;;;;;4127358;28;20552;-78
2021/11/12 01:01:53;;;;;;;71.63;41.97;;;8.40;99.90;;;;;;4127125;28;20034;-79
2021/11/12 01:03:54;;;;;;;65.90;40.05;;;8.40;99.90;;;;;;4119679;28;20039;-78
2021/11/12 01:05:55;;;;;;;65.28;39.88;;;8.40;99.90;;;;;;4122305;28;20406;-78
2021/11/12 01:07:56;;;;;;;72.32;42.55;;;8.40;99.90;;;;;;4117194;28;20050;-78
2021/11/12 01:09:57;;;;;;;69.45;40.80;;;8.40;99.90;;;;;;4122451;28;20042;-78
2021/11/12 01:11:58;;;;;;;66.18;44.50;;;8.30;99.90;;;;;;4127386;28;20038;-78
2021/11/12 01:14:00;;;;;;;72.50;41.97;;;8.30;99.90;;;;;;4126140;28;20154;-78
2021/11/12 01:16:01;;;;;;;72.32;42.97;;;8.30;99.90;;;;;;4143353;28;20409;-78
2021/11/12 01:18:03;;;;;;;73.75;45.95;;;8.30;99.90;;;;;;4124436;28;20097;-78
2021/11/12 01:20:05;;;;;;;71.38;44.60;;;8.30;99.90;;;;;;4118283;28;20462;-79
2021/11/12 01:22:06;;;;;;;76.82;45.28;;;8.30;99.90;;;;;;4128423;28;20053;-78
2021/11/12 01:24:07;;;;;;;74.40;44.97;;;8.30;99.90;;;;;;4118906;28;20030;-78
2021/11/12 01:26:08;;;;;;;69.97;45.05;;;8.30;99.90;;;;;;4129154;28;20061;-77
2021/11/12 01:28:09;;;;;;;74.13;44.85;;;8.20;99.90;;;;;;4129354;28;20125;-77
2021/11/12 01:30:12;;;;;;;79.95;47.35;;;8.20;99.90;;;;;;4129532;28;20064;-77
2021/11/12 01:32:24;;;;;;;70.47;43.92;;;8.30;99.90;;;;;;4127785;28;20042;-78
2021/11/12 01:34:25;;;;;;;75.15;45.83;;;8.30;99.90;;;;;;4128607;28;20459;-78
2021/11/12 01:36:34;;;;;;;81.20;47.33;;;8.30;99.90;;;;;;4122445;28;20045;-76
2021/11/12 01:38:35;;;;;;;77.93;44.63;;;8.30;99.90;;;;;;4144788;28;20053;-78
2021/11/12 01:40:36;;;;;;;75.40;47.45;;;8.30;99.90;;;;;;4124563;28;20077;-78
2021/11/12 01:43:00;;;;;;;79.75;47.08;;;8.20;99.90;;;;;;4131839;28;20089;-79
2021/11/12 01:45:09;;;;;;;80.28;51.22;;;8.20;99.90;;;;;;4130044;28;20034;-77
2021/11/12 01:53:26;;;;;;;84.90;53.10;;;8.10;99.90;;;;;;4127976;28;20506;-78
2021/11/12 01:55:55;;;;;;;92.53;52.05;;;8.00;99.90;;;;;;4124688;28;20050;-77
2021/11/12 02:00:01;;;;;;;87.95;53.05;;;7.90;99.90;;;;;;4129864;28;20031;-77
2021/11/12 02:02:08;;;;;;;85.43;56.08;;;7.90;99.90;;;;;;4128801;28;20509;-78
2021/11/12 02:04:10;;;;;;;85.65;53.88;;;7.90;99.90;;;;;;4129376;28;20065;-78
2021/11/12 02:06:13;;;;;;;92.97;56.15;;;7.90;99.90;;;;;;4122164;28;20031;-78
2021/11/12 02:08:14;;;;;;;;;;;7.80;99.90;;;;;;4128739;28;20430;-78
2021/11/12 02:10:20;;;;;;;80.80;51.95;;;7.80;99.90;;;;;;4130462;28;19964;-78
2021/11/12 02:12:32;;;;;;;88.28;53.40;;;7.80;99.90;;;;;;4131590;28;20518;-78
2021/11/12 02:14:33;;;;;;;90.22;52.95;;;7.80;99.90;;;;;;4130931;28;20046;-78
2021/11/12 02:16:38;;;;;;;91.78;55.28;;;7.80;99.90;;;;;;4129109;28;20142;-78
2021/11/12 02:18:42;;;;;;;93.88;54.53;;;7.70;99.90;;;;;;4129493;28;20053;-79
2021/11/12 02:21:05;;;;;;;93.28;55.03;;;7.70;99.90;;;;;;4130207;28;20045;-78
2021/11/12 02:23:06;;;;;;;96.20;55.75;;;7.70;99.90;;;;;;4126686;28;20133;-78
2021/11/12 02:25:21;;;;;;;87.85;53.22;;;7.70;99.90;;;;;;4125941;28;20613;-78
2021/11/12 02:27:27;;;;;;;91.63;55.22;;;7.60;99.90;;;;;;4127234;28;20448;-78
2021/11/12 02:29:29;;;;;;;83.80;48.97;;;7.60;99.90;;;;;;4122076;28;20044;-78
2021/11/12 02:31:31;;;;;;;80.65;51.05;;;7.60;99.90;;;;;;4127122;28;20056;-78
2021/11/12 02:33:33;;;;;;;83.38;50.47;;;7.60;99.90;;;;;;4123400;28;20062;-77
2021/11/12 02:35:36;;;;;;;93.45;53.28;;;7.60;99.90;;;;;;4128236;28;20046;-78
2021/11/12 02:37:37;;;;;;;94.80;53.15;;;7.60;99.90;;;;;;4124998;28;20034;-77
2021/11/12 02:39:37;;;;;;;85.57;49.25;;;7.50;99.90;;;;;;4127059;28;20031;-77
2021/11/12 02:41:39;;;;;;;84.82;50.33;;;7.60;99.90;;;;;;4145619;28;20026;-77
2021/11/12 02:43:42;;;;;;;84.68;51.65;;;7.60;99.90;;;;;;4129547;28;20537;-78
2021/11/12 02:45:44;;;;;;;88.82;52.15;;;7.60;99.90;;;;;;4127648;28;20117;-77
2021/11/12 02:47:45;;;;;;;82.45;49.58;;;7.50;99.90;;;;;;4129632;28;20057;-79
2021/11/12 02:49:47;;;;;;;90.28;54.10;;;7.50;99.90;;;;;;4121628;28;20129;-78
2021/11/12 02:51:48;;;;;;;80.25;49.85;;;7.50;99.90;;;;;;4129259;28;20092;-78
2021/11/12 02:53:49;;;;;;;93.75;53.17;;;7.50;99.90;;;;;;4128436;28;20054;-78
2021/11/12 02:55:50;;;;;;;87.22;50.17;;;7.50;99.90;;;;;;4128210;28;20045;-78
2021/11/12 02:57:51;;;;;;;95.63;50.92;;;7.50;99.90;;;;;;4128751;28;20042;-78
2021/11/12 02:59:52;;;;;;;90.60;50.40;;;7.40;99.90;;;;;;4125542;28;20069;-76
2021/11/12 03:01:54;;;;;;;82.57;46.97;;;7.40;99.90;;;;;;4121477;28;20034;-77
2021/11/12 03:03:56;;;;;;;88.50;47.47;;;7.50;99.90;;;;;;4121019;28;20053;-78
2021/11/12 03:05:57;;;;;;;85.05;47.70;;;7.50;99.90;;;;;;4121883;28;20027;-77
2021/11/12 03:07:59;;;;;;;80.75;49.42;;;7.60;99.90;;;;;;4122564;28;20078;-78
2021/11/12 03:10:00;;;;;;;82.30;45.28;;;7.60;99.90;;;;;;4127805;28;20054;-77
2021/11/12 03:12:03;;;;;;;82.13;45.80;;;7.60;99.90;;;;;;4128312;28;20384;-77
2021/11/12 03:14:04;;;;;;;;;;;7.60;99.90;;;;;;4124600;28;20065;-78
2021/11/12 03:16:06;;;;;;;85.20;46.55;;;7.50;99.90;;;;;;4119440;28;19914;-78
2021/11/12 03:18:07;;;;;;;86.78;45.92;;;7.60;99.90;;;;;;4127971;28;20042;-78
2021/11/12 03:20:11;;;;;;;81.05;46.25;;;7.50;99.90;;;;;;4124069;28;20129;-77
2021/11/12 03:22:17;;;;;;;78.22;45.50;;;7.60;99.90;;;;;;4128438;28;20088;-77
2021/11/12 03:24:27;;;;;;;79.82;44.65;;;7.50;99.90;;;;;;4127285;28;20035;-78
2021/11/12 03:26:52;;;;;;;78.20;46.90;;;7.50;99.90;;;;;;4130052;28;20169;-77
2021/11/12 03:29:18;;;;;;;73.80;47.08;;;7.50;99.90;;;;;;4128118;28;20149;-78
2021/11/12 04:02:59;;;;;;;78.93;45.72;;;7.20;99.90;;;;;;4121782;28;20037;-77
2021/11/12 04:07:14;;;;;;;73.15;44.65;;;7.10;99.90;;;;;;4129082;28;20128;-77
2021/11/12 04:41:22;;;;;;;88.88;51.35;;;5.90;99.90;;;;;;4124768;28;20126;-79
2021/11/12 05:11:26;;;;;;;101.35;52.88;;;5.20;99.90;;;;;;4128879;28;20081;-78
2021/11/12 05:25:29;;;;;;;99.60;53.35;;;5.20;99.90;;;;;;4128671;28;20434;-78
2021/11/12 05:25:59;;;;;;;102.50;55.20;;;5.00;99.90;;;;;;4128380;28;20038;-77
2021/11/12 05:44:11;;;;;;;102.80;51.50;;;4.30;99.90;;;;;;4130790;28;20633;-77
2021/11/12 05:55:13;;;;;;;102.47;53.90;;;4.10;99.90;;;;;;4129610;28;20284;-78
2021/11/12 05:57:14;;;;;;;103.78;54.20;;;4.00;99.90;;;;;;4130015;28;20129;-78
2021/11/12 05:59:16;;;;;;;109.95;55.10;;;4.00;99.90;;;;;;4130686;28;20038;-77
2021/11/12 06:01:16;;;;;;;103.78;56.85;;;3.90;99.90;;;;;;4128948;28;20508;-77
2021/11/12 06:03:17;;;;;;;106.50;54.80;;;3.90;99.90;;;;;;4131384;28;20145;-77
2021/11/12 06:05:18;;;;;;;108.45;54.28;;;3.90;99.90;;;;;;4131329;28;20442;-78
2021/11/12 06:07:19;;;;;;;95.85;52.95;;;3.90;99.90;;;;;;4131073;28;20042;-78
2021/11/12 06:09:21;;;;;;;98.43;53.10;;;3.80;99.90;;;;;;4129001;28;20034;-76
2021/11/12 06:11:23;;;;;;;101.63;53.17;;;3.80;99.90;;;;;;4128348;28;20030;-79
2021/11/12 06:13:24;;;;;;;103.05;52.28;;;3.80;99.90;;;;;;4127716;28;20031;-77
2021/11/12 06:15:25;;;;;;;98.15;50.50;;;3.80;99.90;;;;;;4123659;28;20042;-77
2021/11/12 06:17:26;;;;;;;96.13;50.17;;;3.80;99.90;;;;;;4130415;28;20030;-78
2021/11/12 06:19:26;;;;;;;94.85;49.45;;;3.70;99.90;;;;;;4127771;28;20043;-78
2021/11/12 06:21:29;;;;;;;93.57;48.22;;;3.60;99.90;;;;;;4129889;28;20121;-78
2021/11/12 06:23:29;;;;;;;99.55;49.17;;;3.50;99.90;;;;;;4129923;28;20057;-78
2021/11/12 06:25:30;;;;;;;90.50;49.90;;;3.40;99.90;;;;;;4129623;28;20050;-78
2021/11/12 06:27:31;;;;;;;92.90;49.72;;;3.30;99.90;;;;;;4128615;28;20069;-78
2021/11/12 06:29:32;;;;;;;100.47;52.50;;;3.30;99.90;;;;;;4131276;28;20046;-78
2021/11/12 06:31:33;;;;;;;91.60;50.50;;;3.30;99.90;;;;;;4130581;28;20066;-77
2021/11/12 06:33:33;;;;;;;101.00;49.00;;;3.20;99.90;;;;;;4126533;28;20084;-79
2021/11/12 06:35:34;;;;;;;101.38;48.67;;;3.20;99.90;;;;;;4126249;28;20550;-77
2021/11/12 06:37:35;;;;;;;103.65;51.80;;;3.10;99.90;;;;;;4138537;28;20043;-79
2021/11/12 06:39:36;;;;;;;101.20;51.35;;;3.10;99.90;;;;;;4121614;28;20045;-77
2021/11/12 06:43:48;;;;;;;104.13;49.47;;;3.20;99.90;;;;;;4128731;28;20500;-78
2021/11/12 06:50:28;;;;;;;93.22;47.53;;;3.20;99.90;;;;;;4128111;28;20084;-79
2021/11/12 06:52:31;;;;;;;110.55;52.85;;;3.10;99.90;;;;;;4127995;28;20031;-78
2021/11/12 06:54:32;;;;;;;100.60;51.63;;;3.20;99.90;;;;;;4127446;28;20042;-77
2021/11/12 06:56:33;;;;;;;106.72;50.45;;;3.10;99.90;;;;;;4122411;28;20279;-77
2021/11/12 06:58:37;;;;;;;108.40;50.25;;;3.10;99.90;;;;;;4126851;28;20050;-77
2021/11/12 07:00:38;;;;;;;102.13;49.90;;;3.10;99.90;;;;;;4123959;28;20062;-78
2021/11/12 07:02:40;;;;;;;104.82;52.17;;;3.10;99.90;;;;;;4123749;28;20409;-78
2021/11/12 07:04:41;;;;;;;106.28;51.60;;;3.10;99.90;;;;;;4128479;28;20044;-78
2021/11/12 07:06:42;;;;;;;102.13;53.08;;;3.10;99.90;;;;;;4126181;28;20058;-78
2021/11/12 07:08:43;;;;;;;112.07;57.55;;;3.10;99.90;;;;;;4125398;28;20042;-78
2021/11/12 07:10:45;;;;;;;112.38;48.95;;;3.10;99.90;;;;;;4128876;28;20042;-78
2021/11/12 07:12:46;;;;;;;105.90;52.95;;;3.10;99.90;;;;;;4128964;28;20080;-78
2021/11/12 07:14:46;;;;;;;111.28;52.65;;;3.10;99.90;;;;;;4130221;28;20110;-78
2021/11/12 07:16:47;;;;;;;101.90;50.83;;;3.10;99.90;;;;;;4129037;28;20069;-78
2021/11/12 07:18:48;;;;;;;105.35;52.53;;;3.10;99.90;;;;;;4127727;28;20104;-78
2021/11/12 07:20:50;;;;;;;100.25;52.00;;;3.00;99.90;;;;;;4129370;28;20042;-78
2021/11/12 07:22:50;;;;;;;107.90;52.50;;;3.00;99.90;;;;;;4128514;28;20053;-78
2021/11/12 07:24:51;;;;;;;108.97;55.92;;;3.10;99.90;;;;;;4127102;28;20046;-78
2021/11/12 07:26:52;;;;;;;110.10;54.90;;;3.10;99.90;;;;;;4128437;28;20100;-78
2021/11/12 07:28:52;;;;;;;105.53;50.85;;;3.20;99.90;;;;;;4125985;28;20062;-77
2021/11/12 07:30:55;;;;;;;107.38;49.63;;;3.30;99.90;;;;;;4124199;28;20089;-78
2021/11/12 07:32:56;;;;;;;110.20;51.72;;;3.40;99.90;;;;;;4119127;28;20039;-78
2021/11/12 07:34:57;;;;;;;108.70;55.50;;;3.50;99.90;;;;;;4124458;28;20184;-79
2021/11/12 07:37:05;;;;;;;106.63;52.80;;;3.50;99.90;;;;;;4116956;28;20061;-78
2021/11/12 07:39:21;;;;;;;116.13;52.63;;;3.60;99.90;;;;;;4125964;28;20030;-77
2021/11/12 07:48:12;;;;;;;104.68;50.72;;;3.60;99.90;;;;;;4128826;28;20047;-78
2021/11/12 07:50:13;;;;;;;107.15;55.25;;;3.60;99.90;;;;;;4127246;28;20041;-78
2021/11/12 07:52:15;;;;;;;113.55;52.13;;;3.70;99.90;;;;;;4124201;28;20511;-77
2021/11/12 07:54:16;;;;;;;109.43;53.28;;;3.70;99.90;;;;;;4127045;28;20039;-76
2021/11/12 07:56:16;;;;;;;103.82;53.00;;;3.80;99.90;;;;;;4127652;28;20030;-76
2021/11/12 07:58:18;;;;;;;108.53;47.35;;;3.80;99.90;;;;;;4124158;28;20050;-78
2021/11/12 08:00:18;;;;;;;120.35;53.65;;;3.80;99.90;;;;;;4115610;28;20048;-75
2021/11/12 08:02:19;;;;;;;111.80;50.97;;;3.90;99.90;;;;;;4121678;28;20101;-78
2021/11/12 08:04:20;;;;;;;111.57;53.35;;;3.90;99.90;;;;;;4118512;28;20031;-76
2021/11/12 08:06:22;;;;;;;102.78;52.28;;;3.90;99.90;;;;;;4124541;28;20052;-77
2021/11/12 08:08:24;;;;;;;112.90;55.90;;;3.90;99.90;;;;;;4127182;28;20117;-77
2021/11/12 08:10:29;;;;;;;107.60;54.20;;;3.90;99.90;;;;;;4125359;28;20466;-76
2021/11/12 08:12:35;;;;;;;103.30;49.55;;;4.00;99.90;;;;;;4118489;28;20439;-77
2021/11/12 08:14:48;;;;;;;104.10;54.83;;;4.00;99.90;;;;;;4126333;28;20034;-77
2021/11/12 08:19:28;;;;;;;108.88;52.55;;;4.10;99.90;;;;;;4127657;28;20038;-77
2021/11/12 08:23:56;;;;;;;107.45;53.55;;;4.20;99.90;;;;;;4121458;28;20084;-77
2021/11/12 08:29:18;;;;;;;113.10;52.20;;;4.20;99.90;;;;;;4112941;28;20377;-77
2021/11/12 08:31:02;;;;;;;98.30;53.03;;;4.30;99.90;;;;;;4125746;28;20509;-76
2021/11/12 08:33:21;;;;;;;113.95;54.88;;;4.30;99.90;;;;;;4128501;28;20539;-76
2021/11/12 08:35:32;;;;;;;104.68;51.75;;;4.30;99.90;;;;;;4125894;28;20050;-76
2021/11/12 08:42:09;;;;;;;112.10;53.25;;;4.30;99.90;;;;;;4116737;28;20033;-76
2021/11/12 08:46:37;;;;;;;110.30;50.72;;;4.30;99.90;;;;;;4126026;28;20165;-77
2021/11/12 08:48:41;;;;;;;97.03;49.83;;;4.30;99.90;;;;;;4126228;28;20034;-76
2021/11/12 08:50:42;;;;;;;104.65;52.42;;;4.30;99.90;;;;;;4123531;28;20101;-76
2021/11/12 08:52:44;;;;;;;104.70;47.67;;;4.40;99.90;;;;;;4123433;28;20058;-76
2021/11/12 08:54:47;;;;;;;102.88;49.50;;;4.40;99.90;;;;;;4127123;28;20073;-76
2021/11/12 08:56:47;;;;;;;111.25;54.38;;;4.50;99.90;;;;;;4126670;28;20449;-76
2021/11/12 08:58:51;;;;;;;113.50;55.10;;;4.40;99.90;;;;;;4125970;28;20091;-76
2021/11/12 09:00:51;;;;;;;;;;;4.40;99.90;;;;;;4126301;28;20121;-76
2021/11/12 09:02:53;;;;;;;94.10;46.13;;;4.50;99.90;;;;;;4121144;28;19949;-76
2021/11/12 09:04:55;;;;;;;94.90;46.00;;;4.50;99.90;;;;;;4126414;28;20593;-77
2021/11/12 09:06:55;;;;;;;85.43;43.58;;;4.60;99.90;;;;;;4124200;28;20521;-76
2021/11/12 09:08:57;;;;;;;89.68;47.13;;;4.70;99.90;;;;;;4126476;28;20038;-76
2021/11/12 09:10:58;;;;;;;82.85;44.65;;;4.70;99.90;;;;;;4116130;28;20041;-76
2021/11/12 09:15:33;;;;;;;87.05;44.40;;;4.80;99.90;;;;;;4103774;28;20466;-76
2021/11/12 09:17:33;;;;;;;83.00;48.58;;;4.90;99.90;;;;;;4125922;28;20026;-76
2021/11/12 09:19:52;;;;;;;81.97;45.25;;;4.90;99.90;;;;;;4126282;28;20081;-77
2021/11/12 09:21:52;;;;;;;86.28;45.60;;;4.90;99.90;;;;;;4123236;28;20125;-77
2021/11/12 09:23:56;;;;;;;85.13;46.65;;;4.90;99.90;;;;;;4124153;28;20038;-77
2021/11/12 09:25:58;;;;;;;83.75;44.08;;;5.00;99.90;;;;;;4126094;28;20035;-77
2021/11/12 09:27:58;;;;;;;83.55;47.58;;;5.10;99.90;;;;;;4127977;28;20053;-77
2021/11/12 09:29:59;;;;;;;82.45;41.70;;;5.10;99.90;;;;;;4126484;28;20030;-77
2021/11/12 09:31:59;;;;;;;67.88;42.88;;;5.30;99.90;;;;;;4125047;28;20510;-77
2021/11/12 09:34:03;;;;;;;72.57;43.03;;;5.50;99.90;;;;;;4131455;28;20474;-77
2021/11/12 09:36:07;;;;;;;66.85;39.72;;;5.50;99.90;;;;;;4123387;28;20042;-77
2021/11/12 09:38:07;;;;;;;;;;;5.60;99.90;;;;;;4123640;28;20034;-77
2021/11/12 09:40:08;;;;;;;74.18;41.78;;;5.60;99.90;;;;;;4126153;28;20377;-77
2021/11/12 09:42:09;;;;;;;68.07;42.85;;;5.60;99.90;;;;;;4115483;28;20030;-77
2021/11/12 09:44:11;;;;;;;77.57;43.47;;;5.70;99.90;;;;;;4125883;28;20145;-77
2021/11/12 09:46:12;;;;;;;72.32;43.80;;;5.70;99.90;;;;;;4116949;28;20463;-77
2021/11/12 09:48:12;;;;;;;68.88;43.03;;;5.80;99.90;;;;;;4130291;28;20034;-77
2021/11/12 09:50:17;;;;;;;72.57;41.88;;;6.00;99.90;;;;;;4130313;28;20046;-76
2021/11/12 09:52:18;;;;;;;68.65;43.92;;;6.00;99.90;;;;;;4126587;28;20034;-77
2021/11/12 09:54:19;;;;;;;71.97;43.22;;;6.10;99.90;;;;;;4126597;28;20125;-76
2021/11/12 09:56:20;;;;;;;80.75;46.72;;;6.30;99.90;;;;;;4130006;28;20023;-77
2021/11/12 09:58:21;;;;;;;65.63;41.67;;;6.40;99.90;;;;;;4128704;28;20038;-77
2021/11/12 10:00:26;;;;;;;63.35;41.30;;;6.30;99.90;;;;;;4127378;28;20031;-77
2021/11/12 10:02:30;;;;;;;71.05;43.85;;;6.50;99.90;;;;;;4119391;28;20490;-77
2021/11/12 10:04:31;;;;;;;69.63;42.55;;;6.60;99.90;;;;;;4127712;28;20030;-77
2021/11/12 10:06:37;;;;;;;63.53;42.72;;;6.80;99.90;;;;;;4129904;28;20030;-77
2021/11/12 10:08:38;;;;;;;60.22;41.22;;;7.10;99.90;;;;;;4128697;28;20037;-76
2021/11/12 10:10:51;;;;;;;54.92;38.33;;;7.50;99.90;;;;;;4130318;28;20082;-77
2021/11/12 10:12:54;;;;;;;56.08;36.45;;;7.80;99.90;;;;;;4127748;28;20038;-77
2021/11/12 10:15:11;;;;;;;56.55;38.33;;;8.10;99.90;;;;;;4129182;28;20034;-77
2021/11/12 10:17:12;;;;;;;52.00;34.03;;;8.20;99.90;;;;;;4122656;28;20046;-77
2021/11/12 10:19:18;;;;;;;49.65;36.30;;;8.20;99.90;;;;;;4127470;28;20034;-77
2021/11/12 10:21:19;;;;;;;53.65;33.63;;;8.40;99.90;;;;;;4129066;28;20061;-77
2021/11/12 10:23:20;;;;;;;59.08;36.30;;;8.80;99.90;;;;;;4128430;28;20109;-75
2021/11/12 10:25:20;;;;;;;51.47;33.67;;;9.20;99.90;;;;;;4132967;28;20561;-77
2021/11/12 10:27:25;;;;;;;53.30;35.00;;;9.40;99.90;;;;;;4130269;28;20100;-77
2021/11/12 10:29:30;;;;;;;45.83;33.60;;;9.20;99.90;;;;;;4121709;28;20046;-75
2021/11/12 10:31:42;;;;;;;52.47;34.65;;;9.20;99.90;;;;;;4127066;28;20050;-77
2021/11/12 10:33:43;;;;;;;47.30;32.90;;;9.40;99.90;;;;;;4128920;28;20385;-76
2021/11/12 10:35:50;;;;;;;50.35;33.10;;;9.60;99.90;;;;;;4128539;28;20038;-76
2021/11/12 10:37:52;;;;;;;49.20;33.17;;;9.90;99.90;;;;;;4129284;28;20027;-77
2021/11/12 10:39:57;;;;;;;47.60;34.13;;;10.00;99.90;;;;;;4124846;28;20475;-77
2021/11/12 10:42:00;;;;;;;45.15;31.50;;;9.80;99.90;;;;;;4121383;28;20038;-75
2021/11/12 10:44:11;;;;;;;44.63;32.47;;;9.90;99.90;;;;;;4132834;28;20041;-77
2021/11/12 10:46:12;;;;;;;49.67;32.35;;;10.10;99.90;;;;;;4127300;28;20061;-77
2021/11/12 10:48:12;;;;;;;53.85;34.45;;;10.10;99.90;;;;;;4126500;28;20534;-75
2021/11/12 10:50:15;;;;;;;46.40;33.22;;;10.00;99.90;;;;;;4128708;28;20470;-77
2021/11/12 10:52:26;;;;;;;50.45;31.48;;;9.90;99.90;;;;;;4126761;28;20613;-75
2021/11/12 10:54:39;;;;;;;45.65;33.13;;;9.80;99.90;;;;;;4127613;28;20045;-76
2021/11/12 10:56:49;;;;;;;45.13;31.42;;;10.00;99.90;;;;;;4125572;28;20740;-76
2021/11/12 10:59:08;;;;;;;42.67;30.17;;;10.40;99.90;;;;;;4126014;28;20497;-76
2021/11/12 11:01:12;;;;;;;47.15;31.20;;;10.40;99.90;;;;;;4124060;28;20038;-76
2021/11/12 11:03:19;;;;;;;41.85;31.13;;;11.00;99.90;;;;;;4125961;28;20422;-77
2021/11/12 11:05:38;;;;;;;38.80;29.65;;;10.50;99.90;;;;;;4127763;28;20153;-76
2021/11/12 11:07:40;;;;;;;41.47;28.25;;;10.80;99.90;;;;;;4135393;28;20231;-76
2021/11/12 11:09:40;;;;;;;45.72;30.50;;;11.70;99.90;;;;;;4127323;28;20523;-77
2021/11/12 11:11:42;;;;;;;48.00;30.23;;;11.00;99.90;;;;;;4121364;28;20049;-77
2021/11/12 11:13:46;;;;;;;45.08;30.90;;;11.10;99.90;;;;;;4128028;28;20426;-77
2021/11/12 11:15:54;;;;;;;;;;;;;;;;;;4129293;28;20046;-77
2021/11/12 11:18:17;;;;;;;36.17;26.42;;;;;;;;;;4128334;28;19946;-77
2021/11/12 11:20:21;;;;;;;52.67;29.67;;;11.90;99.90;;;;;;4126155;28;20026;-77
2021/11/12 11:22:24;;;;;;;41.65;28.55;;;12.80;99.90;;;;;;4128294;28;20085;-78
2021/11/12 11:24:33;;;;;;;41.77;30.27;;;12.60;99.90;;;;;;4129659;28;20658;-77
2021/11/12 11:26:37;;;;;;;41.10;28.33;;;12.20;99.90;;;;;;4123602;28;20332;-78
2021/11/12 11:28:38;;;;;;;;;;;11.80;99.90;;;;;;4128186;28;20414;-77
2021/11/12 11:30:39;;;;;;;43.63;28.73;;;11.70;99.90;;;;;;4128218;28;19913;-77
2021/11/12 11:32:45;;;;;;;47.53;28.40;;;11.60;99.90;;;;;;4127689;28;20061;-77
2021/11/12 11:34:47;;;;;;;39.53;27.48;;;11.60;99.90;;;;;;4125030;28;20049;-78
2021/11/12 11:36:49;;;;;;;42.30;28.15;;;11.40;99.90;;;;;;4125479;28;20050;-78
2021/11/12 11:38:54;;;;;;;44.15;30.42;;;11.40;99.90;;;;;;4122631;28;20114;-77
2021/11/12 11:40:55;;;;;;;42.25;29.80;;;11.30;99.90;;;;;;4127541;28;20035;-77
2021/11/12 11:42:56;;;;;;;38.95;28.65;;;11.10;99.90;;;;;;4129270;28;20030;-78
2021/11/12 11:44:58;;;;;;;47.30;30.20;;;10.70;99.90;;;;;;4130261;28;20036;-77
2021/11/12 11:47:01;;;;;;;42.70;27.90;;;10.40;99.90;;;;;;4128161;28;20449;-77
2021/11/12 11:49:12;;;;;;;41.22;29.80;;;10.50;99.90;;;;;;4126523;28;20387;-77
2021/11/12 11:51:30;;;;;;;34.60;27.35;;;10.80;99.90;;;;;;4124610;28;20537;-76
2021/11/12 11:53:50;;;;;;;38.17;28.45;;;11.10;99.90;;;;;;4128883;28;20145;-77
2021/11/12 11:55:53;;;;;;;40.03;28.73;;;11.20;99.90;;;;;;4127550;28;20437;-77
2021/11/12 11:57:53;;;;;;;39.63;29.15;;;11.10;99.90;;;;;;4133903;28;20466;-77
2021/11/12 12:00:17;;;;;;;39.45;30.05;;;10.80;99.90;;;;;;4127553;28;20065;-77
2021/11/12 12:02:20;;;;;;;44.63;29.25;;;10.50;99.90;;;;;;4113436;28;20045;-77
2021/11/12 12:04:22;;;;;;;33.72;26.95;;;10.70;99.90;;;;;;4129525;28;20037;-77
2021/11/12 12:06:23;;;;;;;41.60;31.30;;;10.70;99.90;;;;;;4121554;28;20494;-77
2021/11/12 12:08:30;;;;;;;44.67;29.58;;;10.60;99.90;;;;;;4127359;28;20095;-78
2021/11/12 12:10:31;;;;;;;46.42;30.30;;;10.40;99.90;;;;;;4125802;28;20052;-77
2021/11/12 12:12:33;;;;;;;44.78;32.10;;;10.20;99.90;;;;;;4128515;28;20073;-77
2021/11/12 12:14:36;;;;;;;42.35;32.42;;;10.00;99.90;;;;;;4127536;28;20038;-76
2021/11/12 12:16:38;;;;;;;47.47;32.33;;;10.00;99.90;;;;;;4126411;28;20470;-76
2021/11/12 12:18:46;;;;;;;51.60;32.88;;;10.00;99.90;;;;;;4128618;28;20116;-76
2021/11/12 12:21:39;;;;;;;45.30;30.70;;;9.70;99.90;;;;;;4124399;28;20034;-76
2021/11/12 12:30:57;;;;;;;39.47;29.27;;;9.60;99.90;;;;;;4125580;28;20100;-77
2021/11/12 12:33:19;;;;;;;39.63;29.13;;;9.50;99.90;;;;;;4127130;28;20041;-76
2021/11/12 12:43:16;;;;;;;43.13;29.27;;;9.30;99.90;;;;;;4120923;28;20037;-77
2021/11/12 13:22:30;;;;;;;45.47;29.90;;;8.30;99.90;;;;;;4123316;28;20093;-76
2021/11/12 13:24:37;;;;;;;46.03;32.72;;;8.20;99.90;;;;;;4142385;28;20125;-77
2021/11/12 13:26:37;;;;;;;46.40;30.13;;;8.30;99.90;;;;;;4130089;28;20030;-77
2021/11/12 13:28:47;;;;;;;42.70;30.45;;;8.40;99.90;;;;;;4123723;28;20081;-77
2021/11/12 13:31:09;;;;;;;39.90;29.50;;;8.40;99.90;;;;;;4125703;28;20023;-77
2021/11/12 13:33:29;;;;;;;40.53;28.98;;;8.30;99.90;;;;;;4126499;28;20046;-77
2021/11/12 13:35:32;;;;;;;41.70;31.67;;;8.30;99.90;;;;;;4125258;28;20037;-77
2021/11/12 13:37:33;;;;;;;48.08;29.63;;;8.30;99.90;;;;;;4129147;28;20470;-77
2021/11/12 13:39:33;;;;;;;44.47;31.70;;;8.20;99.90;;;;;;4130175;28;20113;-77
2021/11/12 13:41:38;;;;;;;47.90;29.98;;;8.10;99.90;;;;;;4128901;28;20497;-77
2021/11/12 13:43:42;;;;;;;48.47;33.10;;;8.10;99.90;;;;;;4122787;28;20026;-77
2021/11/12 13:45:43;;;;;;;43.53;31.33;;;8.10;99.90;;;;;;4118682;28;20042;-77
2021/11/12 13:47:45;;;;;;;39.08;26.70;;;8.10;99.90;;;;;;4117711;28;20048;-77
2021/11/12 13:49:53;;;;;;;44.90;31.77;;;8.10;99.90;;;;;;4116437;28;20039;-77
2021/11/12 13:52:01;;;;;;;40.90;30.13;;;8.10;99.90;;;;;;4116975;28;21120;-77
2021/11/12 13:54:04;;;;;;;45.03;31.42;;;8.10;99.90;;;;;;4116476;28;20043;-77
2021/11/12 13:56:10;;;;;;;45.03;31.27;;;8.10;99.90;;;;;;4115377;28;20085;-77
2021/11/12 13:58:10;;;;;;;49.15;31.25;;;8.10;99.90;;;;;;4118184;28;20497;-77
2021/11/12 14:00:16;;;;;;;44.00;31.02;;;8.00;99.90;;;;;;4117405;28;20053;-77
2021/11/12 14:02:16;;;;;;;48.05;35.53;;;7.90;99.90;;;;;;4127803;28;20720;-77
2021/11/12 14:04:21;;;;;;;44.55;33.60;;;7.90;99.90;;;;;;4126572;28;20042;-77
2021/11/12 14:06:32;;;;;;;50.70;32.65;;;7.90;99.90;;;;;;4123257;28;20058;-77
2021/11/12 14:08:42;;;;;;;49.22;33.88;;;7.80;99.90;;;;;;4123693;28;20042;-76
2021/11/12 14:10:51;;;;;;;49.17;31.83;;;7.70;99.90;;;;;;4132240;28;20038;-76
2021/11/12 14:12:57;;;;;;;44.25;29.45;;;7.70;99.90;;;;;;4126411;28;20034;-76
2021/11/12 14:17:56;;;;;;;48.42;34.92;;;7.70;99.90;;;;;;4113547;28;20117;-76
2021/11/12 14:20:24;;;;;;;52.13;33.85;;;7.60;99.90;;;;;;4116151;28;20425;-77
2021/11/12 14:22:48;;;;;;;48.63;31.85;;;7.60;99.90;;;;;;4096133;28;20113;-75
2021/11/12 14:24:56;;;;;;;50.58;35.88;;;7.60;99.90;;;;;;4114123;28;20475;-77
2021/11/12 14:27:05;;;;;;;52.72;35.75;;;7.60;99.90;;;;;;4114542;28;20039;-76
2021/11/12 14:29:10;;;;;;;49.78;35.38;;;7.60;99.90;;;;;;4114928;28;20046;-75
2021/11/12 14:31:31;;;;;;;54.03;37.92;;;7.60;99.90;;;;;;4116295;28;20058;-77
2021/11/12 14:35:46;;;;;;;53.85;36.33;;;7.50;99.90;;;;;;4115228;28;20034;-77
2021/11/12 14:40:04;;;;;;;62.05;41.50;;;7.50;99.90;;;;;;4109132;28;20039;-78
2021/11/12 14:48:59;;;;;;;57.28;38.50;;;7.40;99.90;;;;;;4114463;28;20505;-78
2021/11/12 14:51:07;;;;;;;55.88;39.53;;;7.40;99.90;;;;;;4112392;28;20035;-78
2021/11/12 14:53:20;;;;;;;55.28;35.58;;;7.40;99.90;;;;;;4116719;28;20038;-77
2021/11/12 14:55:21;;;;;;;59.63;40.77;;;7.40;99.90;;;;;;4113299;28;21666;-77